createdAt,value
2017-12-01T00:00:54.293Z,802.02
2017-12-01T00:01:54.892Z,801.99
2017-12-01T00:02:55.491Z,802.03
2017-12-01T00:03:56.094Z,802.01
2017-12-01T00:04:56.693Z,802.06
2017-12-01T00:05:57.294Z,802.01
2017-12-01T00:06:57.896Z,802.05
2017-12-01T00:07:58.523Z,802.02
2017-12-01T00:08:59.131Z,802.01
2017-12-01T00:09:59.765Z,802.00
2017-12-01T00:11:00.389Z,801.96
2017-12-01T00:12:00.994Z,801.89
2017-12-01T00:13:01.594Z,801.79
2017-12-01T00:14:02.193Z,801.70
2017-12-01T00:15:02.823Z,801.65
2017-12-01T00:16:03.456Z,801.62
2017-12-01T00:17:04.057Z,801.67
2017-12-01T00:18:04.655Z,801.67
2017-12-01T00:19:05.255Z,801.69
2017-12-01T00:20:05.854Z,801.72
2017-12-01T00:21:06.455Z,801.75
2017-12-01T00:22:07.054Z,801.75
2017-12-01T00:23:07.655Z,801.74
2017-12-01T00:24:08.260Z,801.76
2017-12-01T00:25:08.891Z,801.78
2017-12-01T00:26:09.490Z,801.76
2017-12-01T00:27:10.091Z,801.77
2017-12-01T00:28:10.695Z,801.73
2017-12-01T00:29:11.297Z,801.73
2017-12-01T00:30:11.895Z,801.71
2017-12-01T00:31:12.495Z,801.72
2017-12-01T00:32:13.094Z,801.67
2017-12-01T00:33:13.691Z,801.70
2017-12-01T00:34:14.321Z,801.70
2017-12-01T00:35:14.920Z,801.69
2017-12-01T00:36:15.518Z,801.68
2017-12-01T00:37:16.119Z,801.68
2017-12-01T00:38:16.724Z,801.71
2017-12-01T00:39:17.322Z,801.69
2017-12-01T00:40:17.923Z,801.73
2017-12-01T00:41:18.518Z,801.74
2017-12-01T00:42:19.120Z,801.71
2017-12-01T00:43:19.719Z,801.70
2017-12-01T00:44:20.320Z,801.66
2017-12-01T00:45:20.918Z,801.68
2017-12-01T00:46:21.521Z,801.66
2017-12-01T00:47:22.170Z,801.65
2017-12-01T00:48:22.769Z,801.62
2017-12-01T00:49:23.399Z,801.60
2017-12-01T00:50:23.999Z,801.63
2017-12-01T00:51:24.598Z,801.60
2017-12-01T00:52:25.228Z,801.64
2017-12-01T00:53:25.833Z,801.63
2017-12-01T00:54:26.430Z,801.62
2017-12-01T00:55:27.036Z,801.62
2017-12-01T00:56:27.628Z,801.57
2017-12-01T00:57:28.225Z,801.54
2017-12-01T00:58:28.824Z,801.54
2017-12-01T00:59:29.424Z,801.58
2017-12-01T01:00:30.025Z,801.59
2017-12-01T01:01:30.632Z,801.55
2017-12-01T01:02:31.229Z,801.56
2017-12-01T01:03:31.824Z,801.55
2017-12-01T01:04:32.425Z,801.53
2017-12-01T01:05:33.024Z,801.53
2017-12-01T01:06:33.622Z,801.55
2017-12-01T01:07:34.225Z,801.55
2017-12-01T01:08:34.821Z,801.50
2017-12-01T01:09:35.423Z,801.50
2017-12-01T01:10:36.025Z,801.47
2017-12-01T01:11:36.623Z,801.47
2017-12-01T01:12:37.227Z,801.45
2017-12-01T01:13:37.825Z,801.48
2017-12-01T01:14:38.423Z,801.53
2017-12-01T01:15:39.026Z,801.47
2017-12-01T01:16:39.622Z,801.45
2017-12-01T01:17:40.276Z,801.46
2017-12-01T01:18:40.912Z,801.46
2017-12-01T01:19:41.513Z,801.44
2017-12-01T01:20:42.113Z,801.47
2017-12-01T01:21:42.710Z,801.46
2017-12-01T01:22:43.343Z,801.46
2017-12-01T01:23:43.977Z,801.48
2017-12-01T01:24:44.579Z,801.51
2017-12-01T01:25:45.179Z,801.50
2017-12-01T01:26:45.776Z,801.49
2017-12-01T01:27:46.380Z,801.49
2017-12-01T01:28:46.974Z,801.47
2017-12-01T01:29:47.575Z,801.45
2017-12-01T01:30:48.175Z,801.44
2017-12-01T01:31:48.779Z,801.46
2017-12-01T01:32:49.423Z,801.44
2017-12-01T01:33:50.023Z,801.47
2017-12-01T01:34:50.620Z,801.44
2017-12-01T01:35:51.219Z,801.44
2017-12-01T01:36:51.830Z,801.45
2017-12-01T01:37:52.431Z,801.44
2017-12-01T01:38:53.032Z,801.43
2017-12-01T01:39:53.666Z,801.40
2017-12-01T01:40:54.267Z,801.40
2017-12-01T01:41:54.864Z,801.42
2017-12-01T01:42:55.462Z,801.41
2017-12-01T01:43:56.069Z,801.37
2017-12-01T01:44:56.668Z,801.37
2017-12-01T01:45:57.266Z,801.39
2017-12-01T01:46:57.864Z,801.35
2017-12-01T01:47:58.463Z,801.35
2017-12-01T01:48:59.067Z,801.37
2017-12-01T01:49:59.664Z,801.37
2017-12-01T01:51:00.261Z,801.39
2017-12-01T01:52:00.860Z,801.38
2017-12-01T01:53:01.456Z,801.39
2017-12-01T01:54:02.084Z,801.35
2017-12-01T01:55:02.690Z,801.34
2017-12-01T01:56:03.282Z,801.32
2017-12-01T01:57:03.878Z,801.36
2017-12-01T01:58:04.475Z,801.33
2017-12-01T01:59:05.080Z,801.34
2017-12-01T02:00:05.714Z,801.34
2017-12-01T02:01:06.313Z,801.32
2017-12-01T02:02:06.913Z,801.38
2017-12-01T02:03:07.510Z,801.33
2017-12-01T02:04:08.107Z,801.39
2017-12-01T02:05:08.708Z,801.38
2017-12-01T02:06:09.307Z,801.40
2017-12-01T02:07:09.906Z,801.40
2017-12-01T02:08:10.533Z,801.38
2017-12-01T02:09:11.137Z,801.36
2017-12-01T02:10:11.767Z,801.37
2017-12-01T02:11:12.365Z,801.37
2017-12-01T02:12:12.964Z,801.37
2017-12-01T02:13:13.561Z,801.32
2017-12-01T02:14:14.159Z,801.37
2017-12-01T02:15:14.758Z,801.38
2017-12-01T02:16:15.368Z,801.35
2017-12-01T02:17:15.968Z,801.39
2017-12-01T02:18:16.597Z,801.42
2017-12-01T02:19:17.193Z,801.39
2017-12-01T02:20:17.791Z,801.34
2017-12-01T02:21:18.390Z,801.36
2017-12-01T02:22:19.002Z,801.34
2017-12-01T02:23:19.590Z,801.33
2017-12-01T02:24:20.188Z,801.28
2017-12-01T02:25:20.785Z,801.28
2017-12-01T02:26:21.382Z,801.25
2017-12-01T02:27:22.016Z,801.24
2017-12-01T02:28:22.616Z,801.25
2017-12-01T02:29:23.219Z,801.24
2017-12-01T02:30:23.815Z,801.25
2017-12-01T02:31:24.413Z,801.23
2017-12-01T02:32:25.011Z,801.25
2017-12-01T02:33:25.616Z,801.27
2017-12-01T02:34:26.216Z,801.28
2017-12-01T02:35:26.844Z,801.25
2017-12-01T02:36:27.441Z,801.27
2017-12-01T02:37:28.045Z,801.23
2017-12-01T02:38:28.645Z,801.29
2017-12-01T02:39:29.244Z,801.29
2017-12-01T02:40:29.848Z,801.29
2017-12-01T02:41:30.452Z,801.28
2017-12-01T02:42:31.083Z,801.26
2017-12-01T02:43:31.681Z,801.22
2017-12-01T02:44:32.285Z,801.24
2017-12-01T02:45:32.897Z,801.20
2017-12-01T02:46:33.489Z,801.21
2017-12-01T02:47:34.089Z,801.17
2017-12-01T02:48:34.720Z,801.17
2017-12-01T02:49:35.321Z,801.15
2017-12-01T02:50:35.941Z,801.19
2017-12-01T02:51:36.550Z,801.17
2017-12-01T02:52:37.151Z,801.19
2017-12-01T02:53:37.749Z,801.17
2017-12-01T02:54:38.349Z,801.20
2017-12-01T02:55:38.954Z,801.22
2017-12-01T02:56:39.551Z,801.20
2017-12-01T02:57:40.154Z,801.19
2017-12-01T02:58:40.801Z,801.19
2017-12-01T02:59:41.402Z,801.18
2017-12-01T03:00:42.004Z,801.20
2017-12-01T03:01:42.610Z,801.15
2017-12-01T03:02:43.212Z,801.16
2017-12-01T03:03:43.809Z,801.15
2017-12-01T03:04:44.412Z,801.14
2017-12-01T03:05:45.011Z,801.14
2017-12-01T03:06:45.609Z,801.13
2017-12-01T03:07:46.207Z,801.08
2017-12-01T03:08:46.840Z,801.09
2017-12-01T03:09:47.443Z,801.07
2017-12-01T03:10:48.035Z,801.11
2017-12-01T03:11:48.635Z,801.10
2017-12-01T03:12:49.235Z,801.11
2017-12-01T03:13:49.840Z,801.15
2017-12-01T03:14:50.469Z,801.15
2017-12-01T03:15:51.068Z,801.17
2017-12-01T03:16:51.667Z,801.23
2017-12-01T03:17:52.267Z,801.25
2017-12-01T03:18:52.868Z,801.28
2017-12-01T03:19:53.469Z,801.30
2017-12-01T03:20:54.068Z,801.32
2017-12-01T03:21:54.668Z,801.38
2017-12-01T03:22:55.304Z,801.42
2017-12-01T03:23:55.900Z,801.42
2017-12-01T03:24:56.498Z,801.44
2017-12-01T03:25:57.098Z,801.42
2017-12-01T03:26:57.696Z,801.47
2017-12-01T03:27:58.294Z,801.48
2017-12-01T03:28:58.893Z,801.53
2017-12-01T03:29:59.492Z,801.47
2017-12-01T03:31:00.122Z,801.50
2017-12-01T03:32:00.721Z,801.48
2017-12-01T03:33:01.326Z,801.47
2017-12-01T03:34:01.959Z,801.43
2017-12-01T03:35:02.555Z,801.39
2017-12-01T03:36:03.156Z,801.35
2017-12-01T03:37:03.756Z,801.31
2017-12-01T03:38:04.388Z,801.25
2017-12-01T03:39:04.986Z,801.24
2017-12-01T03:40:05.592Z,801.24
2017-12-01T03:41:06.193Z,801.19
2017-12-01T03:42:06.790Z,801.23
2017-12-01T03:43:07.389Z,801.19
2017-12-01T03:44:07.993Z,801.20
2017-12-01T03:45:08.593Z,801.18
2017-12-01T03:46:09.191Z,801.14
2017-12-01T03:47:09.790Z,801.10
2017-12-01T03:48:10.395Z,801.12
2017-12-01T03:49:10.989Z,801.11
2017-12-01T03:50:11.595Z,801.12
2017-12-01T03:51:12.193Z,801.12
2017-12-01T03:52:12.794Z,801.11
2017-12-01T03:53:13.390Z,801.09
2017-12-01T03:54:13.998Z,801.07
2017-12-01T03:55:14.605Z,801.09
2017-12-01T03:56:15.202Z,801.04
2017-12-01T03:57:15.802Z,801.07
2017-12-01T03:58:16.400Z,801.07
2017-12-01T03:59:17.001Z,801.09
2017-12-01T04:00:17.635Z,801.10
2017-12-01T04:01:18.231Z,801.11
2017-12-01T04:02:18.829Z,801.10
2017-12-01T04:03:19.427Z,801.06
2017-12-01T04:04:20.025Z,801.10
2017-12-01T04:05:20.627Z,801.10
2017-12-01T04:06:21.258Z,801.12
2017-12-01T04:07:21.860Z,801.11
2017-12-01T04:08:22.488Z,801.09
2017-12-01T04:09:23.083Z,801.08
2017-12-01T04:10:23.684Z,801.10
2017-12-01T04:11:24.293Z,801.09
2017-12-01T04:12:24.923Z,801.08
2017-12-01T04:13:25.521Z,801.09
2017-12-01T04:14:26.125Z,801.10
2017-12-01T04:15:26.754Z,801.10
2017-12-01T04:16:27.353Z,801.08
2017-12-01T04:17:27.985Z,801.06
2017-12-01T04:18:28.588Z,801.06
2017-12-01T04:19:29.187Z,801.09
2017-12-01T04:20:29.819Z,801.09
2017-12-01T04:21:30.449Z,801.06
2017-12-01T04:22:31.048Z,801.06
2017-12-01T04:23:31.647Z,801.03
2017-12-01T04:24:32.246Z,801.04
2017-12-01T04:25:32.846Z,801.06
2017-12-01T04:26:33.444Z,801.08
2017-12-01T04:27:34.047Z,801.09
2017-12-01T04:28:34.642Z,801.08
2017-12-01T04:29:35.249Z,801.14
2017-12-01T04:30:35.846Z,801.15
2017-12-01T04:31:36.449Z,801.17
2017-12-01T04:32:37.078Z,801.19
2017-12-01T04:33:37.677Z,801.12
2017-12-01T04:34:38.276Z,801.11
2017-12-01T04:35:38.876Z,801.08
2017-12-01T04:36:39.478Z,801.07
2017-12-01T04:37:40.076Z,801.08
2017-12-01T04:38:40.707Z,801.06
2017-12-01T04:39:41.302Z,801.03
2017-12-01T04:40:41.902Z,801.06
2017-12-01T04:41:42.506Z,801.07
2017-12-01T04:42:43.107Z,801.11
2017-12-01T04:43:43.729Z,801.09
2017-12-01T04:44:44.327Z,801.05
2017-12-01T04:45:44.932Z,801.06
2017-12-01T04:46:45.526Z,801.05
2017-12-01T04:47:46.132Z,801.09
2017-12-01T04:48:46.729Z,801.14
2017-12-01T04:49:47.331Z,801.10
2017-12-01T04:50:47.928Z,801.15
2017-12-01T04:51:48.526Z,801.16
2017-12-01T04:52:49.123Z,801.16
2017-12-01T04:53:49.721Z,801.20
2017-12-01T04:54:50.324Z,801.19
2017-12-01T04:55:50.920Z,801.18
2017-12-01T04:56:51.523Z,801.21
2017-12-01T04:57:52.129Z,801.25
2017-12-01T04:58:52.728Z,801.21
2017-12-01T04:59:53.330Z,801.23
2017-12-01T05:00:53.925Z,801.22
2017-12-01T05:01:54.529Z,801.26
2017-12-01T05:02:55.158Z,801.26
2017-12-01T05:03:55.758Z,801.26
2017-12-01T05:04:56.404Z,801.27
2017-12-01T05:05:57.005Z,801.25
2017-12-01T05:06:57.608Z,801.25
2017-12-01T05:07:58.204Z,801.25
2017-12-01T05:08:58.804Z,801.29
2017-12-01T05:09:59.452Z,801.25
2017-12-01T05:11:00.050Z,801.33
2017-12-01T05:12:00.652Z,801.34
2017-12-01T05:13:01.257Z,801.38
2017-12-01T05:14:01.858Z,801.37
2017-12-01T05:15:02.454Z,801.36
2017-12-01T05:16:03.055Z,801.38
2017-12-01T05:17:03.658Z,801.33
2017-12-01T05:18:04.254Z,801.33
2017-12-01T05:19:04.856Z,801.37
2017-12-01T05:20:05.491Z,801.36
2017-12-01T05:21:06.081Z,801.33
2017-12-01T05:22:06.686Z,801.35
2017-12-01T05:23:07.284Z,801.36
2017-12-01T05:24:07.884Z,801.41
2017-12-01T05:25:08.483Z,801.39
2017-12-01T05:26:09.082Z,801.38
2017-12-01T05:27:09.682Z,801.43
2017-12-01T05:28:10.281Z,801.38
2017-12-01T05:29:10.880Z,801.43
2017-12-01T05:30:11.477Z,801.43
2017-12-01T05:31:12.074Z,801.40
2017-12-01T05:32:12.675Z,801.38
2017-12-01T05:33:13.275Z,801.36
2017-12-01T05:34:13.874Z,801.35
2017-12-01T05:35:14.529Z,801.38
2017-12-01T05:36:15.129Z,801.39
2017-12-01T05:37:15.727Z,801.40
2017-12-01T05:38:16.328Z,801.41
2017-12-01T05:39:16.927Z,801.43
2017-12-01T05:40:17.526Z,801.43
2017-12-01T05:41:18.130Z,801.45
2017-12-01T05:42:18.726Z,801.49
2017-12-01T05:43:19.356Z,801.46
2017-12-01T05:44:19.955Z,801.49
2017-12-01T05:45:20.558Z,801.47
2017-12-01T05:46:21.156Z,801.51
2017-12-01T05:47:21.754Z,801.50
2017-12-01T05:48:22.363Z,801.46
2017-12-01T05:49:22.951Z,801.47
2017-12-01T05:50:23.549Z,801.45
2017-12-01T05:51:24.149Z,801.46
2017-12-01T05:52:24.754Z,801.47
2017-12-01T05:53:25.384Z,801.49
2017-12-01T05:54:25.990Z,801.53
2017-12-01T05:55:26.590Z,801.55
2017-12-01T05:56:27.220Z,801.57
2017-12-01T05:57:27.816Z,801.55
2017-12-01T05:58:28.418Z,801.55
2017-12-01T05:59:29.017Z,801.53
2017-12-01T06:00:29.622Z,801.56
2017-12-01T06:01:30.222Z,801.54
2017-12-01T06:02:30.850Z,801.54
2017-12-01T06:03:31.455Z,801.56
2017-12-01T06:04:32.088Z,801.56
2017-12-01T06:05:32.697Z,801.60
2017-12-01T06:06:33.293Z,801.58
2017-12-01T06:07:33.892Z,801.62
2017-12-01T06:08:34.491Z,801.58
2017-12-01T06:09:35.120Z,801.57
2017-12-01T06:10:35.717Z,801.60
2017-12-01T06:11:36.323Z,801.61
2017-12-01T06:12:36.921Z,801.59
2017-12-01T06:13:37.521Z,801.63
2017-12-01T06:14:38.118Z,801.63
2017-12-01T06:15:38.717Z,801.63
2017-12-01T06:16:39.322Z,801.63
2017-12-01T06:17:39.920Z,801.65
2017-12-01T06:18:40.520Z,801.62
2017-12-01T06:19:41.120Z,801.65
2017-12-01T06:20:41.726Z,801.63
2017-12-01T06:21:42.323Z,801.65
2017-12-01T06:22:42.920Z,801.65
2017-12-01T06:23:43.519Z,801.66
2017-12-01T06:24:44.117Z,801.68
2017-12-01T06:25:44.716Z,801.69
2017-12-01T06:26:45.318Z,801.70
2017-12-01T06:27:45.924Z,801.76
2017-12-01T06:28:46.519Z,801.77
2017-12-01T06:29:47.120Z,801.79
2017-12-01T06:30:47.721Z,801.79
2017-12-01T06:31:48.317Z,801.80
2017-12-01T06:32:48.915Z,801.79
2017-12-01T06:33:49.513Z,801.84
2017-12-01T06:34:50.120Z,801.87
2017-12-01T06:35:50.724Z,801.88
2017-12-01T06:36:51.329Z,801.88
2017-12-01T06:37:51.926Z,801.89
2017-12-01T06:38:52.525Z,801.93
2017-12-01T06:39:53.125Z,801.89
2017-12-01T06:40:53.721Z,801.95
2017-12-01T06:41:54.321Z,801.95
2017-12-01T06:42:54.938Z,801.96
2017-12-01T06:43:55.564Z,801.98
2017-12-01T06:44:56.159Z,801.93
2017-12-01T06:45:56.764Z,801.87
2017-12-01T06:46:57.391Z,801.89
2017-12-01T06:47:57.990Z,801.84
2017-12-01T06:48:58.596Z,801.87
2017-12-01T06:49:59.201Z,801.87
2017-12-01T06:50:59.828Z,801.85
2017-12-01T06:52:00.434Z,801.89
2017-12-01T06:53:01.032Z,801.90
2017-12-01T06:54:01.634Z,801.92
2017-12-01T06:55:02.236Z,801.92
2017-12-01T06:56:02.834Z,801.93
2017-12-01T06:57:03.435Z,801.90
2017-12-01T06:58:04.040Z,801.93
2017-12-01T06:59:04.677Z,801.94
2017-12-01T07:00:05.273Z,801.95
2017-12-01T07:01:05.873Z,801.95
2017-12-01T07:02:06.476Z,801.96
2017-12-01T07:03:07.076Z,801.98
2017-12-01T07:04:07.676Z,801.97
2017-12-01T07:05:08.276Z,801.94
2017-12-01T07:06:08.876Z,801.98
2017-12-01T07:07:09.476Z,801.97
2017-12-01T07:08:10.081Z,802.01
2017-12-01T07:09:10.679Z,801.98
2017-12-01T07:10:11.280Z,802.03
2017-12-01T07:11:11.879Z,801.99
2017-12-01T07:12:12.482Z,801.95
2017-12-01T07:13:13.112Z,801.99
2017-12-01T07:14:13.713Z,801.93
2017-12-01T07:15:14.316Z,801.95
2017-12-01T07:16:14.912Z,801.97
2017-12-01T07:17:15.511Z,801.93
2017-12-01T07:18:16.116Z,801.96
2017-12-01T07:19:16.717Z,801.99
2017-12-01T07:20:17.317Z,801.97
2017-12-01T07:21:17.918Z,802.01
2017-12-01T07:22:18.594Z,802.01
2017-12-01T07:23:19.158Z,802.05
2017-12-01T07:24:19.757Z,802.02
2017-12-01T07:25:20.359Z,802.07
2017-12-01T07:26:20.968Z,802.05
2017-12-01T07:27:21.581Z,802.05
2017-12-01T07:28:22.183Z,802.06
2017-12-01T07:29:22.783Z,802.03
2017-12-01T07:30:23.384Z,802.04
2017-12-01T07:31:23.988Z,802.05
2017-12-01T07:32:24.595Z,802.07
2017-12-01T07:33:25.196Z,802.05
2017-12-01T07:34:25.796Z,802.05
2017-12-01T07:35:26.396Z,802.04
2017-12-01T07:36:26.999Z,802.07
2017-12-01T07:37:27.602Z,802.08
2017-12-01T07:38:28.203Z,802.10
2017-12-01T07:39:28.804Z,802.07
2017-12-01T07:40:29.411Z,802.04
2017-12-01T07:41:30.008Z,802.10
2017-12-01T07:42:30.610Z,802.09
2017-12-01T07:43:31.214Z,802.12
2017-12-01T07:44:31.814Z,802.05
2017-12-01T07:45:32.414Z,802.10
2017-12-01T07:46:33.025Z,802.04
2017-12-01T07:47:33.626Z,802.09
2017-12-01T07:48:34.258Z,802.15
2017-12-01T07:49:34.859Z,802.12
2017-12-01T07:50:35.463Z,802.13
2017-12-01T07:51:36.102Z,802.11
2017-12-01T07:52:36.703Z,802.14
2017-12-01T07:53:37.306Z,802.14
2017-12-01T07:54:37.937Z,802.16
2017-12-01T07:55:38.538Z,802.15
2017-12-01T07:56:39.166Z,802.15
2017-12-01T07:57:39.767Z,802.13
2017-12-01T07:58:40.368Z,802.16
2017-12-01T07:59:40.969Z,802.12
2017-12-01T08:00:41.570Z,802.19
2017-12-01T08:01:42.172Z,802.16
2017-12-01T08:02:42.776Z,802.19
2017-12-01T08:03:43.380Z,802.20
2017-12-01T08:04:43.980Z,802.20
2017-12-01T08:05:44.582Z,802.19
2017-12-01T08:06:45.187Z,802.20
2017-12-01T08:07:45.824Z,802.15
2017-12-01T08:08:46.457Z,802.18
2017-12-01T08:09:47.072Z,802.18
2017-12-01T08:10:47.703Z,802.14
2017-12-01T08:11:48.363Z,802.20
2017-12-01T08:12:48.963Z,802.17
2017-12-01T08:13:49.576Z,802.22
2017-12-01T08:14:50.222Z,802.19
2017-12-01T08:15:50.780Z,802.18
2017-12-01T08:16:51.409Z,802.18
2017-12-01T08:17:52.017Z,802.17
2017-12-01T08:18:52.619Z,802.11
2017-12-01T08:19:53.228Z,802.09
2017-12-01T08:20:53.827Z,802.11
2017-12-01T08:21:54.435Z,802.11
2017-12-01T08:22:55.035Z,802.11
2017-12-01T08:23:55.637Z,802.10
2017-12-01T08:24:56.270Z,802.13
2017-12-01T08:25:56.878Z,802.13
2017-12-01T08:26:57.481Z,802.17
2017-12-01T08:27:58.088Z,802.18
2017-12-01T08:28:58.691Z,802.17
2017-12-01T08:29:59.292Z,802.20
2017-12-01T08:30:59.897Z,802.21
2017-12-01T08:32:00.501Z,802.20
2017-12-01T08:33:01.111Z,802.20
2017-12-01T08:34:01.718Z,802.21
2017-12-01T08:35:02.324Z,802.22
2017-12-01T08:36:02.930Z,802.22
2017-12-01T08:37:03.531Z,802.24
2017-12-01T08:38:04.168Z,802.21
2017-12-01T08:39:04.775Z,802.22
2017-12-01T08:40:05.384Z,802.22
2017-12-01T08:41:05.979Z,802.19
2017-12-01T08:42:06.583Z,802.22
2017-12-01T08:43:07.194Z,802.25
2017-12-01T08:44:07.794Z,802.24
2017-12-01T08:45:08.395Z,802.26
2017-12-01T08:46:09.002Z,802.23
2017-12-01T08:47:09.611Z,802.27
2017-12-01T08:48:10.213Z,802.25
2017-12-01T08:49:10.815Z,802.25
2017-12-01T08:50:11.423Z,802.27
2017-12-01T08:51:12.024Z,802.27
2017-12-01T08:52:12.628Z,802.30
2017-12-01T08:53:13.232Z,802.30
2017-12-01T08:54:13.841Z,802.31
2017-12-01T08:55:14.442Z,802.35
2017-12-01T08:56:15.046Z,802.32
2017-12-01T08:57:15.650Z,802.38
2017-12-01T08:58:16.252Z,802.34
2017-12-01T08:59:16.857Z,802.41
2017-12-01T09:00:17.459Z,802.41
2017-12-01T09:01:18.064Z,802.42
2017-12-01T09:02:18.673Z,802.39
2017-12-01T09:03:19.273Z,802.37
2017-12-01T09:04:19.878Z,802.41
2017-12-01T09:05:20.481Z,802.43
2017-12-01T09:06:21.100Z,802.43
2017-12-01T09:07:21.692Z,802.47
2017-12-01T09:08:22.328Z,802.47
2017-12-01T09:09:22.943Z,802.49
2017-12-01T09:10:23.545Z,802.48
2017-12-01T09:11:24.148Z,802.48
2017-12-01T09:12:24.758Z,802.47
2017-12-01T09:13:25.394Z,802.52
2017-12-01T09:14:26.006Z,802.47
2017-12-01T09:15:26.609Z,802.45
2017-12-01T09:16:27.242Z,802.50
2017-12-01T09:17:27.848Z,802.52
2017-12-01T09:18:28.454Z,802.53
2017-12-01T09:19:29.062Z,802.53
2017-12-01T09:20:29.699Z,802.51
2017-12-01T09:21:30.307Z,802.51
2017-12-01T09:22:30.912Z,802.50
2017-12-01T09:23:31.522Z,802.49
2017-12-01T09:24:32.127Z,802.51
2017-12-01T09:25:32.763Z,802.50
2017-12-01T09:26:33.370Z,802.52
2017-12-01T09:27:33.981Z,802.50
2017-12-01T09:28:34.616Z,802.49
2017-12-01T09:29:35.224Z,802.48
2017-12-01T09:30:35.829Z,802.48
2017-12-01T09:31:36.438Z,802.51
2017-12-01T09:32:37.080Z,802.55
2017-12-01T09:33:37.696Z,802.52
2017-12-01T09:34:38.299Z,802.49
2017-12-01T09:35:38.903Z,802.50
2017-12-01T09:36:39.510Z,802.50
2017-12-01T09:37:40.118Z,802.60
2017-12-01T09:38:40.722Z,802.57
2017-12-01T09:39:41.329Z,802.62
2017-12-01T09:40:41.936Z,802.62
2017-12-01T09:41:42.573Z,802.62
2017-12-01T09:42:43.178Z,802.61
2017-12-01T09:43:43.785Z,802.58
2017-12-01T09:44:44.396Z,802.60
2017-12-01T09:45:45.003Z,802.58
2017-12-01T09:46:45.608Z,802.60
2017-12-01T09:47:46.221Z,802.58
2017-12-01T09:48:46.830Z,802.59
2017-12-01T09:49:47.438Z,802.60
2017-12-01T09:50:48.041Z,802.62
2017-12-01T09:51:48.647Z,802.61
2017-12-01T09:52:49.255Z,802.58
2017-12-01T09:53:49.862Z,802.58
2017-12-01T09:54:50.468Z,802.54
2017-12-01T09:55:51.074Z,802.57
2017-12-01T09:56:51.683Z,802.60
2017-12-01T09:57:52.295Z,802.57
2017-12-01T09:58:52.902Z,802.58
2017-12-01T09:59:53.537Z,802.58
2017-12-01T10:00:54.147Z,802.61
2017-12-01T10:01:54.813Z,802.53
2017-12-01T10:02:55.367Z,802.56
2017-12-01T10:03:55.974Z,802.52
2017-12-01T10:04:56.610Z,802.54
2017-12-01T10:05:57.216Z,802.53
2017-12-01T10:06:57.822Z,802.51
2017-12-01T10:07:58.430Z,802.50
2017-12-01T10:08:59.038Z,802.54
2017-12-01T10:09:59.647Z,802.54
2017-12-01T10:11:00.288Z,802.54
2017-12-01T10:12:00.894Z,802.57
2017-12-01T10:13:01.501Z,802.58
2017-12-01T10:14:02.111Z,802.59
2017-12-01T10:15:02.718Z,802.60
2017-12-01T10:16:03.325Z,802.60
2017-12-01T10:17:03.932Z,802.62
2017-12-01T10:18:04.547Z,802.58
2017-12-01T10:19:05.154Z,802.55
2017-12-01T10:20:05.759Z,802.51
2017-12-01T10:21:06.394Z,802.48
2017-12-01T10:22:07.002Z,802.47
2017-12-01T10:23:07.610Z,802.49
2017-12-01T10:24:08.247Z,802.50
2017-12-01T10:25:08.859Z,802.51
2017-12-01T10:26:09.465Z,802.48
2017-12-01T10:27:10.073Z,802.50
2017-12-01T10:28:10.681Z,802.46
2017-12-01T10:29:11.289Z,802.50
2017-12-01T10:30:11.905Z,802.51
2017-12-01T10:31:12.515Z,802.50
2017-12-01T10:32:13.119Z,802.52
2017-12-01T10:33:13.727Z,802.52
2017-12-01T10:34:14.338Z,802.49
2017-12-01T10:35:14.946Z,802.46
2017-12-01T10:36:15.556Z,802.49
2017-12-01T10:37:16.163Z,802.52
2017-12-01T10:38:16.775Z,802.50
2017-12-01T10:39:17.383Z,802.47
2017-12-01T10:40:17.997Z,802.53
2017-12-01T10:41:18.607Z,802.50
2017-12-01T10:42:19.238Z,802.53
2017-12-01T10:43:19.849Z,802.53
2017-12-01T10:44:20.458Z,802.51
2017-12-01T10:45:21.068Z,802.49
2017-12-01T10:46:21.677Z,802.46
2017-12-01T10:47:22.293Z,802.51
2017-12-01T10:48:22.938Z,802.49
2017-12-01T10:49:23.547Z,802.51
2017-12-01T10:50:24.158Z,802.53
2017-12-01T10:51:24.772Z,802.47
2017-12-01T10:52:25.380Z,802.48
2017-12-01T10:53:25.996Z,802.45
2017-12-01T10:54:26.604Z,802.49
2017-12-01T10:55:27.216Z,802.44
2017-12-01T10:56:27.831Z,802.46
2017-12-01T10:57:28.438Z,802.41
2017-12-01T10:58:29.048Z,802.48
2017-12-01T10:59:29.664Z,802.48
2017-12-01T11:00:30.271Z,802.48
2017-12-01T11:01:30.880Z,802.46
2017-12-01T11:02:31.490Z,802.45
2017-12-01T11:03:32.102Z,802.44
2017-12-01T11:04:32.718Z,802.43
2017-12-01T11:05:33.358Z,802.47
2017-12-01T11:06:33.969Z,802.50
2017-12-01T11:07:34.585Z,802.43
2017-12-01T11:08:35.200Z,802.43
2017-12-01T11:09:35.813Z,802.44
2017-12-01T11:10:36.420Z,802.42
2017-12-01T11:11:37.032Z,802.43
2017-12-01T11:12:37.644Z,802.42
2017-12-01T11:13:38.252Z,802.45
2017-12-01T11:14:38.866Z,802.42
2017-12-01T11:15:39.472Z,802.44
2017-12-01T11:16:40.086Z,802.46
2017-12-01T11:17:40.694Z,802.49
2017-12-01T11:18:41.306Z,802.43
2017-12-01T11:19:41.910Z,802.41
2017-12-01T11:20:42.516Z,802.40
2017-12-01T11:21:43.130Z,802.46
2017-12-01T11:22:43.736Z,802.48
2017-12-01T11:23:44.342Z,802.47
2017-12-01T11:24:44.952Z,802.47
2017-12-01T11:25:45.563Z,802.48
2017-12-01T11:26:46.173Z,802.50
2017-12-01T11:27:46.780Z,802.52
2017-12-01T11:28:47.421Z,802.48
2017-12-01T11:29:48.030Z,802.52
2017-12-01T11:30:48.646Z,802.50
2017-12-01T11:31:49.262Z,802.53
2017-12-01T11:32:49.871Z,802.52
2017-12-01T11:33:50.476Z,802.49
2017-12-01T11:34:51.085Z,802.51
2017-12-01T11:35:51.693Z,802.50
2017-12-01T11:36:52.307Z,802.53
2017-12-01T11:37:52.914Z,802.56
2017-12-01T11:38:53.521Z,802.53
2017-12-01T11:39:54.135Z,802.55
2017-12-01T11:40:54.742Z,802.59
2017-12-01T11:41:55.351Z,802.50
2017-12-01T11:42:55.989Z,802.56
2017-12-01T11:43:56.631Z,802.56
2017-12-01T11:44:57.248Z,802.53
2017-12-01T11:45:57.887Z,802.52
2017-12-01T11:46:58.527Z,802.59
2017-12-01T11:47:59.135Z,802.54
2017-12-01T11:48:59.784Z,802.55
2017-12-01T11:50:00.391Z,802.54
2017-12-01T11:51:00.996Z,802.56
2017-12-01T11:52:01.609Z,802.57
2017-12-01T11:53:02.220Z,802.58
2017-12-01T11:54:02.842Z,802.59
2017-12-01T11:55:03.446Z,802.58
2017-12-01T11:56:04.055Z,802.58
2017-12-01T11:57:04.665Z,802.57
2017-12-01T11:58:05.273Z,802.58
2017-12-01T11:59:05.887Z,802.56
2017-12-01T12:00:06.492Z,802.65
2017-12-01T12:01:07.109Z,802.58
2017-12-01T12:02:07.717Z,802.62
2017-12-01T12:03:08.327Z,802.60
2017-12-01T12:04:08.986Z,802.57
2017-12-01T12:05:09.600Z,802.55
2017-12-01T12:06:10.242Z,802.55
2017-12-01T12:07:10.847Z,802.53
2017-12-01T12:08:11.464Z,802.54
2017-12-01T12:09:12.072Z,802.50
2017-12-01T12:10:12.681Z,802.49
2017-12-01T12:11:13.285Z,802.49
2017-12-01T12:12:13.898Z,802.52
2017-12-01T12:13:14.510Z,802.50
2017-12-01T12:14:15.108Z,802.53
2017-12-01T12:15:15.716Z,802.54
2017-12-01T12:16:16.321Z,802.55
2017-12-01T12:17:16.928Z,802.56
2017-12-01T12:18:17.537Z,802.57
2017-12-01T12:19:18.143Z,802.59
2017-12-01T12:20:18.767Z,802.58
2017-12-01T12:21:19.365Z,802.61
2017-12-01T12:22:19.973Z,802.61
2017-12-01T12:23:20.579Z,802.61
2017-12-01T12:24:21.185Z,802.64
2017-12-01T12:25:21.794Z,802.67
2017-12-01T12:26:22.401Z,802.65
2017-12-01T12:27:23.016Z,802.65
2017-12-01T12:28:23.618Z,802.67
2017-12-01T12:29:24.227Z,802.74
2017-12-01T12:30:24.838Z,802.66
2017-12-01T12:31:25.444Z,802.69
2017-12-01T12:32:26.055Z,802.67
2017-12-01T12:33:26.664Z,802.73
2017-12-01T12:34:27.275Z,802.72
2017-12-01T12:35:27.920Z,802.70
2017-12-01T12:36:28.528Z,802.73